To NAV CANADA Home Page Login to a new session Search on AWWS site Feedback and Comments Disclaimer Vers la page française équivalente Tips FAQ What's new on the site To the Forecasts and Observations / NOTAM section To "File a Flight Plan" website Publications and other links Update of the User's profile FIC Telephone Numbers My Weather Data Folder Route Weather Data Regional Weather Data Local Weather Data To the Forecasts and Observations / NOTAM section
Request Generated 12/10/2016 at 16:33:18 UTC . Weather information available at that time is displayed.

METAR/TAF

TORONTO/LESTER B. PEARSON INTL/ON    

METAR CYYZ 101600Z 13002KT 10SM -SN BKN023 BKN064 M04/M07 A3034 RMK
SC6SC1 SLP285=
METAR CYYZ 101500Z 00000KT 7SM -SN FEW020 BKN032 M05/M08 A3034 RMK
SF1SC7 SF TR SLP287=
METAR CYYZ 101400Z 00000KT 4SM -SN OVC020 M05/M09 A3033 RMK SC8
SLP283=

TAF CYYZ 101438Z 1015/1118 VRB03KT P6SM -SN FEW020 OVC070 TEMPO
1015/1020 3SM -SN OVC020
BECMG 1016/1018 26015G25KT
FM102000 26015G25KT P6SM FEW030
BECMG 1021/1023 25012KT BKN220
FM111400 15005KT 2SM -SN OVC020
FM111700 15010KT 11/2SM -SN OVC007
RMK NXT FCST BY 101800Z=
Your time UTC time
Weather data provided by Environment Canada and NAV CANADA